sensor_id;sensor_type;location;lat;lon;timestamp;pressure;altitude;pressure_sealevel;temperature;humidity
71559;BME280;59382;43.852;25.952;2023-07-31T00:03:47;100521.56;;;27.58;44.05
71559;BME280;59382;43.852;25.952;2023-07-31T00:06:13;100546.97;;;27.60;44.23
71559;BME280;59382;43.852;25.952;2023-07-31T00:08:38;100543.88;;;27.62;43.95
71559;BME280;59382;43.852;25.952;2023-07-31T00:11:04;100538.53;;;27.48;43.94
71559;BME280;59382;43.852;25.952;2023-07-31T00:13:29;100550.25;;;27.54;43.84
71559;BME280;59382;43.852;25.952;2023-07-31T00:15:54;100541.78;;;27.50;44.04
71559;BME280;59382;43.852;25.952;2023-07-31T00:18:20;100540.66;;;27.51;44.17
71559;BME280;59382;43.852;25.952;2023-07-31T00:20:45;100528.56;;;27.47;44.35
71559;BME280;59382;43.852;25.952;2023-07-31T00:23:11;100531.31;;;27.56;44.02
71559;BME280;59382;43.852;25.952;2023-07-31T00:25:36;100531.81;;;27.58;44.28
71559;BME280;59382;43.852;25.952;2023-07-31T00:28:02;100543.09;;;27.53;44.17
71559;BME280;59382;43.852;25.952;2023-07-31T00:30:28;100546.19;;;27.51;44.13
71559;BME280;59382;43.852;25.952;2023-07-31T00:32:53;100524.53;;;27.36;44.44
71559;BME280;59382;43.852;25.952;2023-07-31T00:35:19;100551.88;;;27.46;44.54
71559;BME280;59382;43.852;25.952;2023-07-31T00:37:44;100536.25;;;27.42;44.68
71559;BME280;59382;43.852;25.952;2023-07-31T00:40:10;100552.22;;;27.45;44.64
71559;BME280;59382;43.852;25.952;2023-07-31T00:42:35;100532.97;;;27.31;44.64
71559;BME280;59382;43.852;25.952;2023-07-31T00:45:01;100522.84;;;27.18;44.71
71559;BME280;59382;43.852;25.952;2023-07-31T00:47:26;100547.59;;;27.23;44.61
71559;BME280;59382;43.852;25.952;2023-07-31T00:49:52;100544.00;;;27.14;45.00
71559;BME280;59382;43.852;25.952;2023-07-31T00:52:18;100542.72;;;27.20;45.11
71559;BME280;59382;43.852;25.952;2023-07-31T00:54:44;100540.59;;;27.17;45.24
71559;BME280;59382;43.852;25.952;2023-07-31T00:57:10;100553.81;;;27.20;45.72
71559;BME280;59382;43.852;25.952;2023-07-31T00:59:36;100538.47;;;27.14;45.73
71559;BME280;59382;43.852;25.952;2023-07-31T01:02:02;100534.91;;;27.05;45.88
71559;BME280;59382;43.852;25.952;2023-07-31T01:04:28;100509.31;;;26.91;46.36
71559;BME280;59382;43.852;25.952;2023-07-31T01:07:06;100534.41;;;27.03;46.19
71559;BME280;59382;43.852;25.952;2023-07-31T01:12:07;100517.97;;;27.07;46.23
71559;BME280;59382;43.852;25.952;2023-07-31T01:14:34;100522.50;;;27.11;45.85
71559;BME280;59382;43.852;25.952;2023-07-31T01:17:00;100512.91;;;27.09;46.35
71559;BME280;59382;43.852;25.952;2023-07-31T01:19:26;100505.91;;;26.94;46.22
71559;BME280;59382;43.852;25.952;2023-07-31T01:28:11;100512.88;;;26.83;47.91
71559;BME280;59382;43.852;25.952;2023-07-31T01:30:42;100488.59;;;26.63;47.24
71559;BME280;59382;43.852;25.952;2023-07-31T01:33:09;100495.53;;;26.60;47.16
71559;BME280;59382;43.852;25.952;2023-07-31T01:35:36;100505.53;;;26.70;47.17
71559;BME280;59382;43.852;25.952;2023-07-31T01:38:02;100514.34;;;26.72;47.40
71559;BME280;59382;43.852;25.952;2023-07-31T01:40:28;100500.59;;;26.58;48.02
71559;BME280;59382;43.852;25.952;2023-07-31T01:42:53;100509.22;;;26.48;47.99
71559;BME280;59382;43.852;25.952;2023-07-31T01:45:18;100524.00;;;26.44;48.72
71559;BME280;59382;43.852;25.952;2023-07-31T01:47:44;100524.25;;;26.25;49.29
71559;BME280;59382;43.852;25.952;2023-07-31T01:50:10;100532.66;;;26.12;50.10
71559;BME280;59382;43.852;25.952;2023-07-31T01:52:36;100539.44;;;26.06;50.81
71559;BME280;59382;43.852;25.952;2023-07-31T01:55:01;100544.63;;;25.99;51.28
71559;BME280;59382;43.852;25.952;2023-07-31T01:57:27;100551.03;;;25.86;51.63
71559;BME280;59382;43.852;25.952;2023-07-31T01:59:52;100523.53;;;25.59;51.89
71559;BME280;59382;43.852;25.952;2023-07-31T02:02:19;100562.97;;;25.73;52.84
71559;BME280;59382;43.852;25.952;2023-07-31T02:04:45;100559.97;;;25.61;53.33
71559;BME280;59382;43.852;25.952;2023-07-31T02:07:10;100564.31;;;25.53;53.92
71559;BME280;59382;43.852;25.952;2023-07-31T02:09:36;100565.09;;;25.54;54.12
71559;BME280;59382;43.852;25.952;2023-07-31T02:12:02;100554.88;;;25.54;53.82
71559;BME280;59382;43.852;25.952;2023-07-31T02:14:27;100550.41;;;25.45;54.89
71559;BME280;59382;43.852;25.952;2023-07-31T02:16:53;100565.47;;;25.39;55.00
71559;BME280;59382;43.852;25.952;2023-07-31T02:19:18;100573.66;;;25.44;55.33
71559;BME280;59382;43.852;25.952;2023-07-31T02:21:44;100557.41;;;25.29;55.48
71559;BME280;59382;43.852;25.952;2023-07-31T02:24:09;100571.63;;;25.36;55.65
71559;BME280;59382;43.852;25.952;2023-07-31T02:26:35;100584.19;;;25.42;55.99
71559;BME280;59382;43.852;25.952;2023-07-31T02:29:00;100586.63;;;25.43;55.63
71559;BME280;59382;43.852;25.952;2023-07-31T02:31:26;100578.78;;;25.37;55.85
71559;BME280;59382;43.852;25.952;2023-07-31T02:33:51;100590.53;;;25.42;56.20
71559;BME280;59382;43.852;25.952;2023-07-31T02:36:17;100593.09;;;25.39;56.56
71559;BME280;59382;43.852;25.952;2023-07-31T02:38:42;100568.69;;;25.19;56.35
71559;BME280;59382;43.852;25.952;2023-07-31T02:41:08;100606.91;;;25.39;56.54
71559;BME280;59382;43.852;25.952;2023-07-31T02:43:33;100606.53;;;25.32;56.79
71559;BME280;59382;43.852;25.952;2023-07-31T02:45:59;100603.84;;;25.27;56.79
71559;BME280;59382;43.852;25.952;2023-07-31T02:48:25;100593.22;;;25.20;56.85
71559;BME280;59382;43.852;25.952;2023-07-31T02:50:50;100603.84;;;25.27;57.10
71559;BME280;59382;43.852;25.952;2023-07-31T02:53:16;100608.34;;;25.23;57.47
71559;BME280;59382;43.852;25.952;2023-07-31T02:55:41;100601.22;;;25.22;57.60
71559;BME280;59382;43.852;25.952;2023-07-31T02:58:07;100606.72;;;25.22;57.56
71559;BME280;59382;43.852;25.952;2023-07-31T03:00:32;100606.59;;;25.27;57.73
71559;BME280;59382;43.852;25.952;2023-07-31T03:02:58;100601.81;;;25.32;57.40
71559;BME280;59382;43.852;25.952;2023-07-31T03:05:27;100601.38;;;25.39;57.56
71559;BME280;59382;43.852;25.952;2023-07-31T03:07:52;100590.94;;;25.36;57.75
71559;BME280;59382;43.852;25.952;2023-07-31T03:10:18;100593.09;;;25.39;57.88
71559;BME280;59382;43.852;25.952;2023-07-31T03:12:46;100594.84;;;25.35;58.21
71559;BME280;59382;43.852;25.952;2023-07-31T03:15:12;100595.69;;;25.35;58.27
71559;BME280;59382;43.852;25.952;2023-07-31T03:17:37;100595.38;;;25.37;58.08
71559;BME280;59382;43.852;25.952;2023-07-31T03:20:03;100579.81;;;25.27;58.34
71559;BME280;59382;43.852;25.952;2023-07-31T03:22:29;100594.22;;;25.38;58.63
71559;BME280;59382;43.852;25.952;2023-07-31T03:24:54;100602.81;;;25.36;58.47
71559;BME280;59382;43.852;25.952;2023-07-31T03:27:20;100578.97;;;25.27;58.52
71559;BME280;59382;43.852;25.952;2023-07-31T03:29:45;100593.81;;;25.44;58.50
71559;BME280;59382;43.852;25.952;2023-07-31T03:32:10;100602.28;;;25.48;58.18
71559;BME280;59382;43.852;25.952;2023-07-31T03:34:36;100575.81;;;25.33;58.36
71559;BME280;59382;43.852;25.952;2023-07-31T03:37:03;100595.13;;;25.47;58.65
71559;BME280;59382;43.852;25.952;2023-07-31T03:39:30;100582.03;;;25.39;58.39
71559;BME280;59382;43.852;25.952;2023-07-31T03:41:55;100604.00;;;25.57;58.75
71559;BME280;59382;43.852;25.952;2023-07-31T03:44:21;100599.66;;;25.65;58.40
71559;BME280;59382;43.852;25.952;2023-07-31T03:46:46;100597.16;;;25.77;57.90
71559;BME280;59382;43.852;25.952;2023-07-31T03:49:12;100590.38;;;25.83;58.13
71559;BME280;59382;43.852;25.952;2023-07-31T03:51:39;100591.72;;;25.94;57.71
71559;BME280;59382;43.852;25.952;2023-07-31T03:54:05;100582.00;;;25.96;57.88
71559;BME280;59382;43.852;25.952;2023-07-31T03:56:30;100603.56;;;26.08;57.53
71559;BME280;59382;43.852;25.952;2023-07-31T03:58:56;100592.84;;;26.15;57.29
71559;BME280;59382;43.852;25.952;2023-07-31T04:01:21;100586.38;;;26.19;57.41
71559;BME280;59382;43.852;25.952;2023-07-31T04:03:47;100603.84;;;26.28;56.86
71559;BME280;59382;43.852;25.952;2023-07-31T04:06:13;100606.28;;;26.30;57.35
71559;BME280;59382;43.852;25.952;2023-07-31T04:08:39;100610.00;;;26.25;57.18
71559;BME280;59382;43.852;25.952;2023-07-31T04:11:04;100616.84;;;26.28;57.56
71559;BME280;59382;43.852;25.952;2023-07-31T04:13:30;100616.72;;;26.33;57.50
71559;BME280;59382;43.852;25.952;2023-07-31T04:15:55;100613.19;;;26.41;57.09
71559;BME280;59382;43.852;25.952;2023-07-31T04:18:21;100621.84;;;26.48;57.09
71559;BME280;59382;43.852;25.952;2023-07-31T04:20:47;100611.91;;;26.47;56.94
71559;BME280;59382;43.852;25.952;2023-07-31T04:23:12;100614.81;;;26.42;57.00
71559;BME280;59382;43.852;25.952;2023-07-31T04:25:38;100601.66;;;26.17;57.52
71559;BME280;59382;43.852;25.952;2023-07-31T04:28:04;100635.41;;;26.27;57.59
71559;BME280;59382;43.852;25.952;2023-07-31T04:30:29;100622.88;;;26.30;57.54
71559;BME280;59382;43.852;25.952;2023-07-31T04:32:55;100619.25;;;26.21;57.99
71559;BME280;59382;43.852;25.952;2023-07-31T04:35:20;100631.59;;;26.15;58.24
71559;BME280;59382;43.852;25.952;2023-07-31T04:37:46;100627.19;;;26.14;58.26
71559;BME280;59382;43.852;25.952;2023-07-31T04:40:14;100621.97;;;26.12;58.26
71559;BME280;59382;43.852;25.952;2023-07-31T04:42:40;100629.06;;;26.27;57.57
71559;BME280;59382;43.852;25.952;2023-07-31T04:45:06;100629.06;;;26.27;57.50
71559;BME280;59382;43.852;25.952;2023-07-31T04:47:31;100629.88;;;26.27;57.75
71559;BME280;59382;43.852;25.952;2023-07-31T04:49:57;100629.06;;;26.27;57.58
71559;BME280;59382;43.852;25.952;2023-07-31T04:52:22;100632.13;;;26.25;57.54
71559;BME280;59382;43.852;25.952;2023-07-31T04:54:48;100634.59;;;26.27;58.05
71559;BME280;59382;43.852;25.952;2023-07-31T04:57:14;100637.84;;;26.29;58.20
71559;BME280;59382;43.852;25.952;2023-07-31T04:59:40;100638.50;;;26.26;58.27
71559;BME280;59382;43.852;25.952;2023-07-31T05:02:07;100644.81;;;26.26;58.32
71559;BME280;59382;43.852;25.952;2023-07-31T05:04:33;100639.59;;;26.25;58.21
71559;BME280;59382;43.852;25.952;2023-07-31T05:06:58;100620.88;;;26.22;58.32
71559;BME280;59382;43.852;25.952;2023-07-31T05:09:24;100631.69;;;26.32;58.46
71559;BME280;59382;43.852;25.952;2023-07-31T05:11:50;100637.22;;;26.32;58.33
71559;BME280;59382;43.852;25.952;2023-07-31T05:14:15;100625.78;;;26.25;58.64
71559;BME280;59382;43.852;25.952;2023-07-31T05:16:41;100619.25;;;26.21;58.63
71559;BME280;59382;43.852;25.952;2023-07-31T05:19:07;100625.09;;;26.19;58.89
71559;BME280;59382;43.852;25.952;2023-07-31T05:21:32;100629.13;;;26.13;59.02
71559;BME280;59382;43.852;25.952;2023-07-31T05:23:58;100632.69;;;26.05;59.58
71559;BME280;59382;43.852;25.952;2023-07-31T05:26:23;100643.75;;;26.05;59.94
71559;BME280;59382;43.852;25.952;2023-07-31T05:28:49;100626.56;;;25.95;59.70
71559;BME280;59382;43.852;25.952;2023-07-31T05:31:14;100645.16;;;26.03;60.03
71559;BME280;59382;43.852;25.952;2023-07-31T05:33:40;100627.81;;;25.89;59.96
71559;BME280;59382;43.852;25.952;2023-07-31T05:36:06;100639.25;;;25.96;60.13
71559;BME280;59382;43.852;25.952;2023-07-31T05:38:31;100646.19;;;26.07;59.97
71559;BME280;59382;43.852;25.952;2023-07-31T05:40:57;100648.31;;;26.10;59.67
71559;BME280;59382;43.852;25.952;2023-07-31T05:43:22;100636.16;;;25.97;60.12
71559;BME280;59382;43.852;25.952;2023-07-31T05:45:48;100641.16;;;25.95;60.24
71559;BME280;59382;43.852;25.952;2023-07-31T05:48:13;100655.59;;;26.06;60.17
71559;BME280;59382;43.852;25.952;2023-07-31T05:50:39;100658.88;;;26.08;60.27
71559;BME280;59382;43.852;25.952;2023-07-31T05:53:05;100657.88;;;26.04;60.30
71559;BME280;59382;43.852;25.952;2023-07-31T05:55:31;100628.81;;;25.93;60.13
71559;BME280;59382;43.852;25.952;2023-07-31T05:57:57;100666.53;;;26.11;60.07
71559;BME280;59382;43.852;25.952;2023-07-31T06:00:22;100663.94;;;26.14;60.26
71559;BME280;59382;43.852;25.952;2023-07-31T06:02:48;100666.78;;;26.23;60.25
71559;BME280;59382;43.852;25.952;2023-07-31T06:05:14;100663.50;;;26.21;59.95
71559;BME280;59382;43.852;25.952;2023-07-31T06:07:39;100663.38;;;26.26;60.27
71559;BME280;59382;43.852;25.952;2023-07-31T06:10:05;100673.03;;;26.37;59.99
71559;BME280;59382;43.852;25.952;2023-07-31T06:12:32;100673.56;;;26.39;60.06
71559;BME280;59382;43.852;25.952;2023-07-31T06:14:58;100672.25;;;26.36;60.01
71559;BME280;59382;43.852;25.952;2023-07-31T06:17:23;100673.34;;;26.35;60.18
71559;BME280;59382;43.852;25.952;2023-07-31T06:19:49;100670.44;;;26.32;60.17
71559;BME280;59382;43.852;25.952;2023-07-31T06:22:15;100671.06;;;26.29;60.78
71559;BME280;59382;43.852;25.952;2023-07-31T06:24:41;100658.59;;;26.18;60.65
71559;BME280;59382;43.852;25.952;2023-07-31T06:27:06;100675.81;;;26.37;60.74
71559;BME280;59382;43.852;25.952;2023-07-31T06:29:32;100688.53;;;26.38;60.42
71559;BME280;59382;43.852;25.952;2023-07-31T06:31:58;100696.81;;;26.38;60.52
71559;BME280;59382;43.852;25.952;2023-07-31T06:34:24;100698.25;;;26.35;60.53
71559;BME280;59382;43.852;25.952;2023-07-31T06:36:49;100698.72;;;26.29;60.98
71559;BME280;59382;43.852;25.952;2023-07-31T06:39:15;100685.91;;;26.11;61.16
71559;BME280;59382;43.852;25.952;2023-07-31T06:41:45;100679.16;;;26.03;61.38
71559;BME280;59382;43.852;25.952;2023-07-31T06:44:11;100701.50;;;26.07;62.00
71559;BME280;59382;43.852;25.952;2023-07-31T06:46:36;100691.44;;;26.11;61.58
71559;BME280;59382;43.852;25.952;2023-07-31T06:49:02;100684.06;;;26.06;61.53
71559;BME280;59382;43.852;25.952;2023-07-31T06:51:27;100677.13;;;26.17;61.49
71559;BME280;59382;43.852;25.952;2023-07-31T06:53:53;100693.75;;;26.39;60.63
71559;BME280;59382;43.852;25.952;2023-07-31T06:56:19;100681.72;;;26.44;60.38
71559;BME280;59382;43.852;25.952;2023-07-31T06:58:44;100686.97;;;26.54;59.82
71559;BME280;59382;43.852;25.952;2023-07-31T07:01:10;100686.47;;;26.52;60.03
71559;BME280;59382;43.852;25.952;2023-07-31T07:03:35;100678.81;;;26.49;59.99
71559;BME280;59382;43.852;25.952;2023-07-31T07:06:01;100681.44;;;26.54;59.99
71559;BME280;59382;43.852;25.952;2023-07-31T07:08:26;100691.38;;;26.55;59.79
71559;BME280;59382;43.852;25.952;2023-07-31T07:10:52;100689.41;;;26.47;60.17
71559;BME280;59382;43.852;25.952;2023-07-31T07:13:17;100689.19;;;26.43;60.01
71559;BME280;59382;43.852;25.952;2023-07-31T07:15:47;100692.28;;;26.42;60.06
71559;BME280;59382;43.852;25.952;2023-07-31T07:18:13;100679.66;;;26.27;60.15
71559;BME280;59382;43.852;25.952;2023-07-31T07:20:39;100706.88;;;26.34;60.46
71559;BME280;59382;43.852;25.952;2023-07-31T07:23:07;100698.72;;;26.29;60.42
71559;BME280;59382;43.852;25.952;2023-07-31T07:25:33;100699.34;;;26.26;60.48
71559;BME280;59382;43.852;25.952;2023-07-31T07:27:58;100699.09;;;26.36;60.15
71559;BME280;59382;43.852;25.952;2023-07-31T07:30:24;100693.75;;;26.39;60.06
71559;BME280;59382;43.852;25.952;2023-07-31T07:32:50;100695.16;;;26.37;59.71
71559;BME280;59382;43.852;25.952;2023-07-31T07:37:58;100718.06;;;26.51;59.77
71559;BME280;59382;43.852;25.952;2023-07-31T07:40:23;100723.59;;;26.51;60.09
71559;BME280;59382;43.852;25.952;2023-07-31T07:42:49;100713.16;;;26.48;59.96
71559;BME280;59382;43.852;25.952;2023-07-31T07:45:15;100727.22;;;26.60;59.96
71559;BME280;59382;43.852;25.952;2023-07-31T07:47:41;100717.53;;;26.71;59.55
71559;BME280;59382;43.852;25.952;2023-07-31T07:50:10;100715.28;;;26.73;59.60
71559;BME280;59382;43.852;25.952;2023-07-31T07:52:36;100729.34;;;26.85;59.22
71559;BME280;59382;43.852;25.952;2023-07-31T07:55:03;100731.78;;;26.87;59.41
71559;BME280;59382;43.852;25.952;2023-07-31T07:57:29;100736.88;;;26.93;59.17
71559;BME280;59382;43.852;25.952;2023-07-31T07:59:54;100726.59;;;26.94;59.03
71559;BME280;59382;43.852;25.952;2023-07-31T08:02:29;100731.88;;;27.04;58.91
71559;BME280;59382;43.852;25.952;2023-07-31T08:04:56;100730.31;;;26.89;58.97
71559;BME280;59382;43.852;25.952;2023-07-31T08:07:22;100741.78;;;26.96;59.03
71559;BME280;59382;43.852;25.952;2023-07-31T08:09:48;100738.84;;;27.01;58.66
71559;BME280;59382;43.852;25.952;2023-07-31T08:12:13;100738.22;;;27.04;58.49
71559;BME280;59382;43.852;25.952;2023-07-31T08:14:39;100731.50;;;26.97;58.48
71559;BME280;59382;43.852;25.952;2023-07-31T08:17:04;100746.69;;;26.99;58.64
71559;BME280;59382;43.852;25.952;2023-07-31T08:19:30;100739.16;;;26.91;58.62
71559;BME280;59382;43.852;25.952;2023-07-31T08:21:59;100739.91;;;26.83;58.51
71559;BME280;59382;43.852;25.952;2023-07-31T08:24:30;100752.44;;;26.80;58.39
71559;BME280;59382;43.852;25.952;2023-07-31T08:26:55;100744.34;;;26.84;58.58
71559;BME280;59382;43.852;25.952;2023-07-31T08:29:25;100745.13;;;26.84;58.20
71559;BME280;59382;43.852;25.952;2023-07-31T08:31:53;100737.13;;;26.83;58.52
71559;BME280;59382;43.852;25.952;2023-07-31T08:34:18;100714.78;;;26.71;58.50
71559;BME280;59382;43.852;25.952;2023-07-31T08:36:44;100731.13;;;26.81;57.97
71559;BME280;59382;43.852;25.952;2023-07-31T08:39:10;100702.19;;;26.65;58.00
71559;BME280;59382;43.852;25.952;2023-07-31T08:41:38;100728.34;;;26.81;58.02
71559;BME280;59382;43.852;25.952;2023-07-31T08:44:06;100714.53;;;26.90;57.65
71559;BME280;59382;43.852;25.952;2023-07-31T08:46:32;100719.47;;;27.01;57.27
71559;BME280;59382;43.852;25.952;2023-07-31T08:49:04;100733.78;;;27.25;56.71
71559;BME280;59382;43.852;25.952;2023-07-31T08:51:30;100727.28;;;27.38;56.52
71559;BME280;59382;43.852;25.952;2023-07-31T08:53:56;100746.56;;;27.60;56.11
71559;BME280;59382;43.852;25.952;2023-07-31T08:56:23;100731.06;;;27.59;56.01
71559;BME280;59382;43.852;25.952;2023-07-31T08:58:49;100711.50;;;27.56;55.51
71559;BME280;59382;43.852;25.952;2023-07-31T09:01:16;100744.69;;;27.86;55.47
71559;BME280;59382;43.852;25.952;2023-07-31T09:03:43;100737.00;;;27.92;55.10
71559;BME280;59382;43.852;25.952;2023-07-31T09:06:09;100754.81;;;27.99;55.24
71559;BME280;59382;43.852;25.952;2023-07-31T09:08:40;100737.00;;;28.00;54.81
71559;BME280;59382;43.852;25.952;2023-07-31T09:11:07;100744.84;;;28.07;54.87
71559;BME280;59382;43.852;25.952;2023-07-31T09:13:33;100741.25;;;28.06;54.73
71559;BME280;59382;43.852;25.952;2023-07-31T09:15:59;100718.28;;;27.97;54.75
71559;BME280;59382;43.852;25.952;2023-07-31T09:18:25;100742.06;;;28.15;54.69
71559;BME280;59382;43.852;25.952;2023-07-31T09:21:06;100746.81;;;28.15;54.88
71559;BME280;59382;43.852;25.952;2023-07-31T09:23:42;100746.63;;;28.20;54.88
71559;BME280;59382;43.852;25.952;2023-07-31T09:26:08;100753.50;;;28.22;54.82
71559;BME280;59382;43.852;25.952;2023-07-31T09:28:34;100738.47;;;28.23;54.56
71559;BME280;59382;43.852;25.952;2023-07-31T09:30:59;100744.03;;;28.40;54.07
71559;BME280;59382;43.852;25.952;2023-07-31T09:33:25;100743.50;;;28.55;53.53
71559;BME280;59382;43.852;25.952;2023-07-31T09:35:50;100712.22;;;28.46;53.16
71559;BME280;59382;43.852;25.952;2023-07-31T09:38:16;100738.44;;;28.66;53.31
71559;BME280;59382;43.852;25.952;2023-07-31T09:40:44;100742.19;;;28.70;53.28
71559;BME280;59382;43.852;25.952;2023-07-31T09:43:18;100743.97;;;28.75;52.97
71559;BME280;59382;43.852;25.952;2023-07-31T09:45:45;100741.81;;;28.80;52.67
71559;BME280;59382;43.852;25.952;2023-07-31T09:48:16;100737.56;;;28.83;52.71
71559;BME280;59382;43.852;25.952;2023-07-31T09:50:43;100730.59;;;28.68;52.90
71559;BME280;59382;43.852;25.952;2023-07-31T09:53:09;100746.25;;;28.73;53.08
71559;BME280;59382;43.852;25.952;2023-07-31T09:55:36;100742.69;;;28.63;52.87
71559;BME280;59382;43.852;25.952;2023-07-31T09:58:07;100734.03;;;28.65;52.60
71559;BME280;59382;43.852;25.952;2023-07-31T10:00:33;100747.41;;;28.63;52.69
71559;BME280;59382;43.852;25.952;2023-07-31T10:03:00;100749.88;;;28.64;52.45
71559;BME280;59382;43.852;25.952;2023-07-31T10:05:49;100750.53;;;28.61;52.28
71559;BME280;59382;43.852;25.952;2023-07-31T10:08:16;100762.28;;;28.58;52.13
71559;BME280;59382;43.852;25.952;2023-07-31T10:10:46;100745.31;;;28.51;52.14
71559;BME280;59382;43.852;25.952;2023-07-31T10:13:12;100732.59;;;28.50;52.26
71559;BME280;59382;43.852;25.952;2023-07-31T10:15:39;100748.72;;;28.57;52.09
71559;BME280;59382;43.852;25.952;2023-07-31T10:18:06;100739.41;;;28.61;52.20
71559;BME280;59382;43.852;25.952;2023-07-31T10:20:33;100735.16;;;28.73;51.79
71559;BME280;59382;43.852;25.952;2023-07-31T10:22:59;100744.56;;;28.89;51.62
71559;BME280;59382;43.852;25.952;2023-07-31T10:25:31;100730.22;;;28.87;51.37
71559;BME280;59382;43.852;25.952;2023-07-31T10:27:57;100738.72;;;28.82;51.57
71559;BME280;59382;43.852;25.952;2023-07-31T10:30:28;100720.47;;;28.63;51.80
71559;BME280;59382;43.852;25.952;2023-07-31T10:32:55;100733.19;;;28.64;52.03
71559;BME280;59382;43.852;25.952;2023-07-31T10:35:21;100719.84;;;28.49;52.06
71559;BME280;59382;43.852;25.952;2023-07-31T10:37:49;100726.09;;;28.46;52.25
71559;BME280;59382;43.852;25.952;2023-07-31T10:40:19;100727.38;;;28.40;52.90
71559;BME280;59382;43.852;25.952;2023-07-31T10:42:56;100725.72;;;28.39;52.86
71559;BME280;59382;43.852;25.952;2023-07-31T10:48:06;100717.09;;;28.24;53.35
71559;BME280;59382;43.852;25.952;2023-07-31T10:50:38;100722.31;;;28.17;53.46
71559;BME280;59382;43.852;25.952;2023-07-31T10:53:04;100712.53;;;28.11;53.51
71559;BME280;59382;43.852;25.952;2023-07-31T10:55:42;100703.56;;;28.22;53.61
71559;BME280;59382;43.852;25.952;2023-07-31T10:58:13;100721.47;;;28.33;53.52
71559;BME280;59382;43.852;25.952;2023-07-31T11:03:09;100698.63;;;28.36;53.46
71559;BME280;59382;43.852;25.952;2023-07-31T11:08:16;100664.06;;;28.25;53.30
71559;BME280;59382;43.852;25.952;2023-07-31T11:10:43;100689.97;;;28.38;53.43
71559;BME280;59382;43.852;25.952;2023-07-31T11:13:09;100676.13;;;28.29;53.48
71559;BME280;59382;43.852;25.952;2023-07-31T11:15:35;100676.41;;;28.36;53.16
71559;BME280;59382;43.852;25.952;2023-07-31T11:18:02;100700.75;;;28.48;53.18
71559;BME280;59382;43.852;25.952;2023-07-31T11:20:33;100699.94;;;28.47;52.91
71559;BME280;59382;43.852;25.952;2023-07-31T11:23:03;100693.41;;;28.43;53.08
71559;BME280;59382;43.852;25.952;2023-07-31T11:25:30;100694.41;;;28.47;52.82
71559;BME280;59382;43.852;25.952;2023-07-31T11:27:57;100687.84;;;28.43;52.86
71559;BME280;59382;43.852;25.952;2023-07-31T11:30:23;100691.28;;;28.49;52.85
71559;BME280;59382;43.852;25.952;2023-07-31T11:32:49;100688.19;;;28.50;53.04
71559;BME280;59382;43.852;25.952;2023-07-31T11:35:15;100676.75;;;28.43;53.35
71559;BME280;59382;43.852;25.952;2023-07-31T11:37:41;100668.25;;;28.40;53.33
71559;BME280;59382;43.852;25.952;2023-07-31T11:40:08;100673.63;;;28.36;53.38
71559;BME280;59382;43.852;25.952;2023-07-31T11:42:37;100659.47;;;28.29;53.81
71559;BME280;59382;43.852;25.952;2023-07-31T11:45:07;100672.81;;;28.44;53.33
71559;BME280;59382;43.852;25.952;2023-07-31T11:47:33;100673.81;;;28.48;53.37
71559;BME280;59382;43.852;25.952;2023-07-31T11:50:06;100673.97;;;28.43;53.29
71559;BME280;59382;43.852;25.952;2023-07-31T11:52:37;100662.69;;;28.40;53.33
71559;BME280;59382;43.852;25.952;2023-07-31T11:55:05;100673.19;;;28.34;52.98
71559;BME280;59382;43.852;25.952;2023-07-31T11:57:32;100662.22;;;28.38;53.05
71559;BME280;59382;43.852;25.952;2023-07-31T11:59:58;100669.91;;;28.32;53.21
71559;BME280;59382;43.852;25.952;2023-07-31T12:02:24;100668.13;;;28.28;53.33
71559;BME280;59382;43.852;25.952;2023-07-31T12:04:50;100652.16;;;28.16;53.26
71559;BME280;59382;43.852;25.952;2023-07-31T12:07:16;100678.09;;;28.20;53.34
71559;BME280;59382;43.852;25.952;2023-07-31T12:09:54;100675.47;;;28.15;53.84
71559;BME280;59382;43.852;25.952;2023-07-31T12:12:21;100669.13;;;28.15;53.77
71559;BME280;59382;43.852;25.952;2023-07-31T12:14:47;100661.78;;;28.10;53.54
71559;BME280;59382;43.852;25.952;2023-07-31T12:17:14;100668.31;;;28.14;53.75
71559;BME280;59382;43.852;25.952;2023-07-31T12:19:40;100649.69;;;28.06;53.88
71559;BME280;59382;43.852;25.952;2023-07-31T12:22:15;100658.16;;;28.18;53.79
71559;BME280;59382;43.852;25.952;2023-07-31T12:24:42;100650.03;;;28.13;53.47
71559;BME280;59382;43.852;25.952;2023-07-31T12:27:12;100648.38;;;28.12;52.98
71559;BME280;59382;43.852;25.952;2023-07-31T12:29:39;100659.00;;;28.19;53.02
71559;BME280;59382;43.852;25.952;2023-07-31T12:32:19;100667.66;;;28.17;52.78
71559;BME280;59382;43.852;25.952;2023-07-31T12:34:44;100662.09;;;28.17;52.81
71559;BME280;59382;43.852;25.952;2023-07-31T12:37:10;100645.44;;;28.17;52.76
71559;BME280;59382;43.852;25.952;2023-07-31T12:39:35;100667.78;;;28.29;52.49
71559;BME280;59382;43.852;25.952;2023-07-31T12:42:01;100665.69;;;28.26;52.29
71559;BME280;59382;43.852;25.952;2023-07-31T12:44:26;100675.81;;;28.22;52.51
71559;BME280;59382;43.852;25.952;2023-07-31T12:46:52;100661.13;;;28.13;52.65
71559;BME280;59382;43.852;25.952;2023-07-31T12:49:40;100670.59;;;28.12;52.79
71559;BME280;59382;43.852;25.952;2023-07-31T12:52:12;100664.38;;;28.15;52.63
71559;BME280;59382;43.852;25.952;2023-07-31T12:54:38;100657.56;;;28.04;52.44
71559;BME280;59382;43.852;25.952;2023-07-31T12:57:06;100658.19;;;28.10;52.41
71559;BME280;59382;43.852;25.952;2023-07-31T12:59:31;100645.31;;;28.05;52.05